Time;durP1;ratioP1;P1;durP2;ratioP2;P2;SDS_P1;SDS_P2;PMS_P1;PMS_P2;Temp;Humidity;BMP_temperature;BMP_pressure;BME280_temperature;BME280_humidity;BME280_pressure;Samples;Min_cycle;Max_cycle;Signal;HPM_P1;HPM_P2
2021/06/26 00:01:59;;;;;;;12.70;8.73;;;14.70;99.90;;;13.33;87.78;101523.75;3509921;40;102324;-40
2021/06/26 00:04:26;;;;;;;12.82;8.50;;;14.70;99.90;;;13.27;87.89;101520.00;3509869;40;102168;-40
2021/06/26 00:06:54;;;;;;;12.70;8.88;;;14.70;99.90;;;13.24;88.12;101520.41;3509780;40;102214;-40
2021/06/26 00:09:21;;;;;;;13.35;9.07;;;14.60;99.90;;;13.20;88.29;101520.00;3510004;40;102847;-40
2021/06/26 00:11:49;;;;;;;11.98;8.32;;;14.60;99.90;;;13.16;88.56;101517.91;3509742;40;104073;-40
2021/06/26 00:14:17;;;;;;;;;;;14.60;99.90;;;13.15;88.52;101529.91;3510641;40;102450;-40
2021/06/26 00:16:45;;;;;;;11.77;7.78;;;14.50;99.90;;;13.09;88.69;101520.63;3509919;40;103126;-40
2021/06/26 00:19:12;;;;;;;12.48;8.32;;;14.50;99.90;;;13.05;88.55;101513.91;3509904;40;102468;-40
2021/06/26 00:21:40;;;;;;;12.33;8.77;;;14.50;99.90;;;13.05;88.70;101520.25;3509648;40;103144;-40
2021/06/26 00:24:07;;;;;;;12.23;8.00;;;14.50;99.90;;;13.04;88.42;101517.69;3509659;40;102415;-41
2021/06/26 00:26:34;;;;;;;13.23;8.70;;;14.40;99.90;;;13.01;88.61;101521.72;3509808;40;103335;-41
2021/06/26 00:29:03;;;;;;;12.55;8.88;;;14.40;99.90;;;12.98;88.66;101518.56;3509850;40;102453;-40
2021/06/26 00:31:30;;;;;;;14.05;9.10;;;14.40;99.90;;;12.97;88.67;101517.69;3509612;40;104047;-40
2021/06/26 00:33:58;;;;;;;12.02;8.43;;;14.40;99.90;;;12.96;88.74;101507.78;3509740;40;102530;-39
2021/06/26 00:36:25;;;;;;;13.07;9.02;;;14.40;99.90;;;12.95;88.80;101519.81;3509756;40;102423;-41
2021/06/26 00:38:52;;;;;;;13.57;8.80;;;14.30;99.90;;;12.91;88.81;101519.41;3509699;40;102382;-40
2021/06/26 00:41:20;;;;;;;12.77;8.73;;;14.30;99.90;;;12.89;88.63;101526.13;3510057;40;104046;-40
2021/06/26 00:43:47;;;;;;;12.88;9.35;;;14.30;99.90;;;12.87;88.75;101517.28;3509332;40;102443;-41
2021/06/26 00:46:15;;;;;;;13.60;9.18;;;14.30;99.90;;;12.85;88.70;101516.66;3643801;22;104279;-41
2021/06/26 00:48:42;;;;;;;;;;;14.30;99.90;;;12.84;88.84;101521.28;3530124;39;102244;-41
2021/06/26 00:51:10;;;;;;;13.63;8.35;;;14.20;99.90;;;12.81;88.74;101513.50;3529483;39;102304;-41
2021/06/26 00:53:38;;;;;;;14.55;9.00;;;14.20;99.90;;;12.79;88.87;101519.19;3529488;39;102837;-41
2021/06/26 00:56:13;;;;;;;12.60;8.85;;;14.20;99.90;;;12.76;88.96;101511.41;3527494;39;103700;-41
2021/06/26 00:58:40;;;;;;;13.65;8.55;;;14.20;99.90;;;12.76;88.94;101513.28;3519448;39;102381;-41
2021/06/26 01:01:11;;;;;;;13.15;8.52;;;14.10;99.90;;;12.72;88.99;101504.63;3519261;40;102343;-42
2021/06/26 01:03:38;;;;;;;12.07;8.70;;;14.20;99.90;;;12.71;89.05;101507.59;3519285;40;103285;-42
2021/06/26 01:06:06;;;;;;;14.30;9.10;;;14.10;99.90;;;12.67;89.30;101509.91;3519244;39;102366;-41
2021/06/26 01:08:34;;;;;;;15.95;9.88;;;14.10;99.90;;;12.65;89.39;101509.28;3519315;40;102188;-42
2021/06/26 01:11:02;;;;;;;15.57;9.52;;;14.10;99.90;;;12.62;89.30;101510.56;3519262;40;103210;-42
2021/06/26 01:13:30;;;;;;;13.43;9.02;;;14.00;99.90;;;12.64;89.31;101507.59;3519120;40;103365;-41
2021/06/26 01:15:57;;;;;;;;;;;14.10;99.90;;;12.62;89.28;101501.47;3519354;40;103040;-41
2021/06/26 01:18:26;;;;;;;15.48;10.25;;;14.00;99.90;;;12.61;89.40;101514.34;3519159;39;102182;-41
2021/06/26 01:20:53;;;;;;;14.23;9.80;;;14.00;99.90;;;12.57;89.32;101512.22;3519039;39;102204;-41
2021/06/26 01:23:23;;;;;;;14.63;9.85;;;14.00;99.90;;;12.56;89.80;101519.59;3518743;40;102780;-41
2021/06/26 01:25:51;;;;;;;15.10;10.30;;;14.00;99.90;;;12.60;90.14;101518.13;3518893;39;102193;-41
2021/06/26 01:28:18;;;;;;;15.30;8.85;;;14.00;99.90;;;12.58;90.17;101520.22;3520215;39;102103;-42
2021/06/26 01:30:46;;;;;;;16.63;9.52;;;14.00;99.90;;;12.54;90.13;101518.13;3520259;39;103253;-42
2021/06/26 01:33:14;;;;;;;13.13;8.98;;;13.90;99.90;;;12.48;90.07;101509.69;3520360;39;102894;-42
2021/06/26 01:35:41;;;;;;;15.85;9.48;;;13.90;99.90;;;12.46;89.87;101506.31;3520374;39;102261;-41
2021/06/26 01:38:09;;;;;;;14.43;9.27;;;13.90;99.90;;;12.43;89.98;101516.84;3520217;39;102712;-42
2021/06/26 01:40:36;;;;;;;14.93;9.70;;;13.90;99.90;;;12.42;90.23;101513.25;3520364;39;104030;-42
2021/06/26 01:43:04;;;;;;;14.13;9.75;;;13.80;99.90;;;12.37;90.23;101519.38;3520014;39;102686;-41
2021/06/26 01:45:31;;;;;;;13.93;9.73;;;13.80;99.90;;;12.35;90.27;101512.41;3520345;39;102980;-41
2021/06/26 01:47:59;;;;;;;15.27;10.55;;;13.80;99.90;;;12.33;90.13;101523.56;3520233;39;102378;-41
2021/06/26 01:50:29;;;;;;;15.27;10.48;;;13.80;99.90;;;12.32;90.14;101519.13;3520263;40;103227;-41
2021/06/26 01:53:00;;;;;;;16.05;10.23;;;13.70;99.90;;;12.31;90.42;101519.34;3520563;39;103429;-41
2021/06/26 01:55:28;;;;;;;13.93;9.18;;;13.70;99.90;;;12.30;90.66;101517.66;3520431;39;104688;-41
2021/06/26 01:57:57;;;;;;;14.73;9.90;;;13.70;99.90;;;12.27;90.37;101518.06;3520156;39;102435;-41
2021/06/26 02:00:26;;;;;;;16.92;10.50;;;13.70;99.90;;;12.25;90.80;101511.97;3520171;39;105109;-41
2021/06/26 02:02:53;;;;;;;17.95;11.27;;;13.60;99.90;;;12.24;90.78;101513.84;3520024;39;102214;-41
2021/06/26 02:05:23;;;;;;;16.52;10.40;;;13.70;99.90;;;12.21;90.79;101517.88;3520746;39;102765;-42
2021/06/26 02:07:52;;;;;;;15.57;10.88;;;13.60;99.90;;;12.14;90.82;101502.47;3519918;39;102390;-41
2021/06/26 02:10:20;;;;;;;16.10;10.70;;;13.60;99.90;;;12.17;91.00;101507.53;3519947;40;104195;-42
2021/06/26 02:12:48;;;;;;;15.82;10.45;;;13.60;99.90;;;12.15;91.04;101499.50;3520180;39;102805;-41
2021/06/26 02:15:15;;;;;;;14.63;10.18;;;13.60;99.90;;;12.16;91.26;101498.47;3519745;39;103180;-41
2021/06/26 02:17:43;;;;;;;16.17;10.57;;;13.60;99.90;;;12.14;91.22;101497.81;3520316;39;102540;-41
2021/06/26 02:20:11;;;;;;;17.23;11.10;;;13.60;99.90;;;12.13;91.35;101501.63;3520343;39;102264;-41
2021/06/26 02:22:38;;;;;;;;;;;13.50;99.90;;;12.12;91.37;101494.47;3521251;39;102081;-41
2021/06/26 02:25:07;;;;;;;15.05;10.23;;;13.60;99.90;;;12.12;91.14;101505.41;3519144;40;102325;-41
2021/06/26 02:27:35;;;;;;;14.10;9.65;;;13.60;99.90;;;12.10;91.58;101499.28;3520186;40;102428;-42
2021/06/26 02:30:06;;;;;;;15.15;10.07;;;13.60;99.90;;;12.11;91.71;101502.88;3520319;39;104367;-41
2021/06/26 02:32:33;;;;;;;14.07;9.40;;;13.50;99.90;;;12.09;91.48;101503.09;3520273;39;102392;-42
2021/06/26 02:35:01;;;;;;;14.23;9.90;;;13.50;99.90;;;12.08;91.59;101498.66;3519803;39;104045;-41
2021/06/26 02:37:28;;;;;;;16.27;10.57;;;13.50;99.90;;;12.02;91.27;101499.50;3519306;39;102117;-41
2021/06/26 02:39:56;;;;;;;16.02;10.20;;;13.50;99.90;;;12.02;91.33;101502.22;3520077;39;102287;-41
2021/06/26 02:42:23;;;;;;;14.40;9.48;;;13.50;99.90;;;11.99;91.09;101497.13;3520057;39;103270;-41
2021/06/26 02:44:51;;;;;;;15.40;10.95;;;13.40;99.90;;;11.97;91.17;101502.81;3519970;39;104094;-42
2021/06/26 02:47:18;;;;;;;16.67;10.98;;;13.40;99.90;;;11.96;91.07;101503.03;3520043;39;102116;-41
2021/06/26 02:49:45;;;;;;;13.43;9.82;;;13.40;99.90;;;11.92;91.15;101502.56;3519089;40;102339;-41
2021/06/26 02:52:13;;;;;;;16.15;10.50;;;13.40;99.90;;;11.92;91.00;101503.41;3519622;39;102622;-41
2021/06/26 02:54:40;;;;;;;15.75;9.52;;;13.40;99.90;;;11.89;91.12;101501.09;3519988;39;102815;-41
2021/06/26 02:57:08;;;;;;;17.92;11.30;;;13.40;99.90;;;11.91;91.27;101496.25;3520671;39;102117;-41
2021/06/26 02:59:35;;;;;;;15.15;10.85;;;13.40;99.90;;;11.90;91.76;101491.00;3519867;39;102860;-41
2021/06/26 03:02:03;;;;;;;15.32;9.95;;;13.30;99.90;;;11.85;91.61;101488.88;3520123;39;102304;-41
2021/06/26 03:04:30;;;;;;;;;;;13.30;99.90;;;11.83;91.37;101493.72;3520713;40;104142;-41
2021/06/26 03:06:58;;;;;;;14.43;9.60;;;13.30;99.90;;;11.80;91.28;101497.72;3519815;40;102338;-41
2021/06/26 03:09:25;;;;;;;15.23;10.32;;;13.30;99.90;;;11.75;91.18;101494.72;3519912;39;103110;-41
2021/06/26 03:11:53;;;;;;;17.42;10.57;;;13.20;99.90;;;11.80;90.91;101497.72;3520364;40;102499;-41
2021/06/26 03:14:20;;;;;;;17.50;10.95;;;13.20;99.90;;;11.78;91.12;101502.50;3519896;39;102190;-41
2021/06/26 03:16:48;;;;;;;15.90;10.45;;;13.20;99.90;;;11.79;91.14;101501.47;3519768;39;102169;-41
2021/06/26 03:19:15;;;;;;;14.43;9.43;;;13.20;99.90;;;11.78;90.99;101501.69;3519556;39;103092;-41
2021/06/26 03:21:43;;;;;;;14.45;9.82;;;13.20;99.90;;;11.75;91.17;101500.19;3520360;39;102391;-41
2021/06/26 03:24:13;;;;;;;15.00;9.50;;;13.20;99.90;;;11.73;91.28;101506.94;3520086;39;102284;-42
2021/06/26 03:26:40;;;;;;;14.23;9.38;;;13.20;99.90;;;11.74;91.40;101503.16;3519066;40;102280;-41
2021/06/26 03:29:08;;;;;;;15.48;10.27;;;13.20;99.90;;;11.74;91.60;101514.09;3520070;39;103403;-41
2021/06/26 03:31:35;;;;;;;17.92;10.52;;;13.20;99.90;;;11.74;91.64;101512.16;3519628;39;103301;-41
2021/06/26 03:34:03;;;;;;;19.33;11.73;;;13.20;99.90;;;11.76;91.73;101514.72;3520301;39;103214;-41
2021/06/26 03:36:31;;;;;;;17.58;11.18;;;13.20;99.90;;;11.78;91.90;101509.88;3519814;39;102367;-41
2021/06/26 03:38:58;;;;;;;17.38;11.50;;;13.20;99.90;;;11.81;91.72;101520.41;3519681;39;103215;-41
2021/06/26 03:41:26;;;;;;;17.08;11.13;;;13.20;99.90;;;11.83;91.73;101512.03;3519979;39;103285;-41
2021/06/26 03:43:59;;;;;;;;;;;13.30;99.90;;;11.82;91.85;101505.69;3520631;39;102391;-41
2021/06/26 03:46:28;;;;;;;18.73;11.18;;;13.30;99.90;;;11.88;91.89;101512.25;3519814;39;102380;-42
2021/06/26 03:48:55;;;;;;;18.77;11.48;;;13.30;99.90;;;11.91;92.14;101509.94;3519725;39;102437;-41
2021/06/26 03:51:23;;;;;;;16.77;10.55;;;13.30;99.90;;;11.94;92.38;101515.00;3519709;39;102754;-41
2021/06/26 03:53:53;;;;;;;17.10;12.02;;;13.30;99.90;;;12.01;92.72;101515.03;3519640;39;104166;-41
2021/06/26 03:56:21;;;;;;;16.52;11.18;;;13.40;99.90;;;12.04;93.04;101506.44;3519628;39;102243;-42
2021/06/26 03:58:48;;;;;;;18.13;11.55;;;13.40;99.90;;;12.10;93.22;101518.44;3519517;39;103220;-41
2021/06/26 04:01:16;;;;;;;18.20;11.15;;;13.40;99.90;;;12.15;93.12;101513.19;3527173;39;105072;-41
2021/06/26 04:03:46;;;;;;;20.35;11.90;;;13.50;99.90;;;12.18;93.09;101510.03;3519852;39;102888;-41
2021/06/26 04:06:14;;;;;;;20.95;13.05;;;13.50;99.90;;;12.21;92.98;101517.88;3519572;39;102452;-41
2021/06/26 04:08:41;;;;;;;;;;;13.50;99.90;;;12.29;93.05;101510.50;3520696;39;102720;-41
2021/06/26 04:11:09;;;;;;;15.85;10.10;;;13.60;99.90;;;12.24;92.86;101505.63;3519636;39;102614;-42
2021/06/26 04:13:36;;;;;;;16.00;10.80;;;13.70;99.90;;;12.35;92.95;101517.88;3520195;39;103107;-41
2021/06/26 04:16:04;;;;;;;17.13;10.82;;;13.70;99.90;;;12.39;92.99;101516.41;3519074;39;102451;-41
2021/06/26 04:18:32;;;;;;;;;;;13.70;99.90;;;12.46;93.11;101508.22;3520384;39;102288;-41
2021/06/26 04:20:59;;;;;;;17.80;12.07;;;13.80;99.90;;;12.54;93.30;101509.91;3519604;39;102513;-42
2021/06/26 04:23:26;;;;;;;19.35;12.52;;;13.80;99.90;;;12.58;93.23;101508.44;3519751;39;102228;-41
2021/06/26 04:25:54;;;;;;;19.23;11.48;;;13.90;99.90;;;12.66;93.10;101510.97;3519267;39;102538;-41
2021/06/26 04:28:21;;;;;;;18.08;11.32;;;13.90;99.90;;;12.72;93.04;101520.25;3519557;39;102200;-41
2021/06/26 04:30:54;;;;;;;18.98;12.30;;;14.00;99.90;;;12.76;92.97;101511.41;3518626;40;102588;-41
2021/06/26 04:33:21;;;;;;;19.23;12.30;;;14.10;99.90;;;12.85;92.94;101513.91;3519461;39;102145;-42
2021/06/26 04:35:49;;;;;;;20.20;12.75;;;14.10;99.90;;;12.92;92.97;101520.22;3518939;39;102373;-41
2021/06/26 04:38:21;;;;;;;17.80;11.82;;;14.20;99.90;;;13.00;93.16;101527.41;3519822;39;103227;-42
2021/06/26 04:40:55;;;;;;;21.75;13.45;;;14.20;99.90;;;13.06;93.19;101518.31;3519899;39;102675;-41
2021/06/26 04:43:22;;;;;;;20.90;13.63;;;14.30;99.90;;;13.15;93.02;101522.56;3519704;39;104086;-43
2021/06/26 04:45:50;;;;;;;21.67;13.82;;;14.40;99.90;;;13.28;93.24;101521.69;3519262;40;102346;-42
2021/06/26 04:48:24;;;;;;;24.80;15.00;;;14.50;99.90;;;13.41;93.01;101529.03;3519592;39;102305;-41
2021/06/26 04:50:52;;;;;;;21.20;13.38;;;14.60;99.90;;;13.58;92.75;101528.59;3519913;39;102763;-41
2021/06/26 04:53:19;;;;;;;23.30;14.15;;;14.70;99.90;;;13.79;93.14;101525.56;3519494;39;102313;-41
2021/06/26 04:55:53;;;;;;;24.67;14.82;;;14.90;99.90;;;13.89;92.58;101532.47;3519388;39;102795;-41
2021/06/26 04:58:23;;;;;;;21.83;14.57;;;15.00;99.90;;;13.94;92.16;101514.31;3519455;39;103140;-42
2021/06/26 05:00:52;;;;;;;22.20;14.32;;;15.10;99.90;;;14.15;92.86;101519.69;3518995;39;102408;-41
2021/06/26 05:03:22;;;;;;;21.95;14.50;;;15.30;99.90;;;14.24;92.22;101521.97;3519041;39;102271;-42
2021/06/26 05:05:50;;;;;;;22.50;14.93;;;15.40;99.90;;;14.38;91.50;101527.38;3518878;40;102472;-41
2021/06/26 05:08:20;;;;;;;22.75;15.75;;;15.50;99.90;;;14.56;91.81;101526.63;3519700;40;102345;-41
2021/06/26 05:10:48;;;;;;;23.75;15.55;;;15.70;99.90;;;14.67;91.27;101531.38;3519476;39;102717;-41
2021/06/26 05:13:16;;;;;;;22.90;15.10;;;15.80;99.90;;;14.72;90.53;101539.00;3519006;40;102290;-41
2021/06/26 05:15:44;;;;;;;24.35;15.50;;;15.80;99.90;;;14.81;90.92;101531.34;3518506;40;103374;-41
2021/06/26 05:18:12;;;;;;;24.23;15.80;;;15.90;99.90;;;14.82;89.76;101525.59;3519418;40;102212;-42
2021/06/26 05:20:39;;;;;;;24.23;15.65;;;16.00;99.90;;;14.85;90.25;101518.81;3519264;40;102436;-42
2021/06/26 05:23:21;;;;;;;27.08;16.73;;;16.00;99.90;;;14.95;90.77;101524.66;3519646;39;103399;-41
2021/06/26 05:25:49;;;;;;;22.80;15.48;;;16.10;99.90;;;15.06;90.61;101522.25;3518788;40;102210;-41
2021/06/26 05:28:16;;;;;;;24.73;15.40;;;16.20;99.90;;;15.17;90.51;101526.16;3519279;40;102453;-41
2021/06/26 05:30:44;;;;;;;25.40;15.85;;;16.20;99.90;;;15.23;89.49;101525.25;3518929;39;102479;-41
2021/06/26 05:33:12;;;;;;;24.45;16.27;;;16.30;99.90;;;15.30;88.86;101526.00;3518769;40;103317;-41
2021/06/26 05:35:40;;;;;;;24.77;16.80;;;16.40;99.90;;;15.45;89.61;101530.31;3518958;40;102310;-42
2021/06/26 05:38:08;;;;;;;23.58;15.85;;;16.50;99.90;;;15.61;90.03;101529.69;3518663;40;102876;-41
2021/06/26 05:40:35;;;;;;;24.13;16.58;;;16.70;99.90;;;15.73;89.88;101521.53;3519177;39;102410;-43
2021/06/26 05:43:03;;;;;;;26.83;16.08;;;16.80;99.90;;;15.89;88.89;101531.09;3518691;40;102175;-41
2021/06/26 05:45:31;;;;;;;25.52;15.65;;;16.90;99.90;;;15.93;88.43;101536.97;3518846;40;102635;-41
2021/06/26 05:47:59;;;;;;;27.17;15.38;;;17.00;99.90;;;15.89;87.07;101536.59;3518636;40;103328;-41
2021/06/26 05:50:26;;;;;;;23.42;15.48;;;17.00;99.90;;;15.94;87.41;101536.75;3518845;40;102447;-41
2021/06/26 05:52:56;;;;;;;24.40;16.17;;;17.00;99.90;;;16.02;86.95;101535.56;3518961;40;102210;-43
2021/06/26 05:55:26;;;;;;;26.13;16.25;;;17.10;99.90;;;16.13;87.58;101522.94;3519091;40;102594;-42
2021/06/26 05:57:54;;;;;;;26.45;17.02;;;17.20;99.90;;;16.47;86.89;101530.72;3518536;39;103394;-41
2021/06/26 06:00:24;;;;;;;24.55;16.63;;;17.40;99.90;;;16.75;85.58;101526.47;3518449;40;102886;-41
2021/06/26 06:02:51;;;;;;;28.98;17.42;;;17.60;99.90;;;17.11;84.31;101530.97;3518495;40;102336;-39
2021/06/26 06:05:19;;;;;;;27.90;16.23;;;17.90;99.90;;;17.33;80.43;101526.78;3518731;39;102357;-41
2021/06/26 06:07:46;;;;;;;24.27;15.57;;;18.10;99.90;;;17.39;78.51;101523.91;3518865;39;102228;-41
2021/06/26 06:10:16;;;;;;;23.60;15.25;;;18.20;99.90;;;17.49;78.40;101520.53;3518722;39;102257;-42
2021/06/26 06:12:44;;;;;;;25.50;16.20;;;18.30;99.90;;;17.50;76.91;101526.88;3519476;40;104501;-41
2021/06/26 06:15:13;;;;;;;23.77;16.00;;;18.40;99.90;;;17.67;76.11;101525.06;3519625;39;102444;-41
2021/06/26 06:17:40;;;;;;;26.30;16.05;;;18.50;99.90;;;17.91;77.04;101529.69;3520090;39;102471;-41
2021/06/26 06:20:09;;;;;;;;;;;18.70;99.90;;;18.14;74.64;101537.06;3520727;39;104512;-42
2021/06/26 06:22:37;;;;;;;28.20;16.52;;;18.90;99.90;;;18.24;73.08;101533.66;3519981;39;102436;-40
2021/06/26 06:25:10;;;;;;;23.25;15.52;;;19.00;99.90;;;18.55;74.34;101537.81;3520048;39;102301;-42
2021/06/26 06:27:41;;;;;;;26.70;16.48;;;19.30;99.90;;;18.83;73.71;101536.09;3519919;39;103062;-42
2021/06/26 06:30:10;;;;;;;22.13;14.52;;;19.50;99.90;;;18.99;72.51;101536.38;3520467;39;102519;-42
2021/06/26 06:32:38;;;;;;;18.38;12.35;;;19.70;99.90;;;19.10;66.14;101538.22;3520372;39;104323;-43
2021/06/26 06:35:07;;;;;;;16.23;11.05;;;19.80;99.90;;;19.00;66.14;101534.44;3519964;39;102416;-41
2021/06/26 06:37:37;;;;;;;17.23;12.20;;;19.90;99.90;;;19.06;64.23;101542.56;3520080;39;102206;-43
2021/06/26 06:40:07;;;;;;;15.18;10.63;;;19.90;99.90;;;19.20;64.64;101536.69;3519972;39;102459;-42
2021/06/26 06:42:35;;;;;;;16.55;10.63;;;20.00;99.90;;;19.20;63.34;101536.69;3519968;39;102298;-42
2021/06/26 06:45:04;;;;;;;17.38;11.00;;;20.00;99.90;;;19.24;63.83;101541.47;3519962;39;102427;-42
2021/06/26 06:47:32;;;;;;;16.27;10.77;;;20.10;99.90;;;19.47;65.44;101535.97;3652112;22;104326;-41
2021/06/26 06:49:59;;;;;;;18.63;11.63;;;20.20;99.90;;;19.66;65.10;101542.03;3519895;40;102445;-39
2021/06/26 06:52:27;;;;;;;17.33;11.27;;;20.40;99.90;;;19.74;60.82;101547.09;3520469;39;103351;-40
2021/06/26 06:54:54;;;;;;;15.55;10.48;;;20.50;99.90;;;19.91;63.83;101540.72;3520545;39;102548;-40
2021/06/26 06:57:24;;;;;;;15.68;10.55;;;20.60;99.90;;;20.01;61.06;101548.31;3516094;39;103189;-40
2021/06/26 06:59:53;;;;;;;15.85;10.40;;;20.80;99.90;;;19.98;60.04;101550.50;3510818;40;102442;-40
2021/06/26 07:02:21;;;;;;;16.73;11.20;;;20.80;99.90;;;19.94;61.40;101549.34;3510691;40;103208;-40
2021/06/26 07:04:50;;;;;;;13.88;10.48;;;20.80;99.90;;;19.82;59.62;101549.44;3510625;40;102154;-40
2021/06/26 07:07:18;;;;;;;14.70;9.98;;;20.70;99.90;;;19.90;60.24;101550.09;3510724;40;102450;-41
2021/06/26 07:09:45;;;;;;;;;;;20.80;99.90;;;20.05;59.83;101546.69;3511636;40;102442;-43
2021/06/26 07:12:12;;;;;;;15.23;10.55;;;20.90;99.90;;;20.32;59.23;101545.88;3510802;40;103356;-41
2021/06/26 07:14:40;;;;;;;17.08;11.25;;;21.00;99.90;;;20.51;57.94;101554.66;3510983;40;102177;-40
2021/06/26 07:17:08;;;;;;;15.10;11.00;;;21.20;99.90;;;20.70;58.37;101547.63;3510139;40;103043;-41
2021/06/26 07:19:35;;;;;;;15.02;10.25;;;21.40;99.90;;;20.88;57.97;101548.38;3510744;40;102803;-41
2021/06/26 07:22:04;;;;;;;17.05;11.23;;;21.50;99.90;;;20.98;57.33;101539.31;3510876;40;103420;-40
2021/06/26 07:24:31;;;;;;;17.48;10.95;;;21.70;99.90;;;21.20;57.36;101553.03;3509845;40;102086;-40
2021/06/26 07:26:59;;;;;;;16.50;11.30;;;21.80;99.90;;;21.27;55.82;101541.72;3510735;40;102532;-41
2021/06/26 07:29:26;;;;;;;13.48;9.77;;;21.90;99.90;;;21.16;56.71;101548.28;3510351;40;102428;-43
2021/06/26 07:31:54;;;;;;;16.98;11.25;;;21.80;99.90;;;21.33;56.76;101557.28;3510424;40;102315;-40
2021/06/26 07:34:21;;;;;;;14.68;10.93;;;22.00;99.90;;;21.35;54.36;101538.44;3510454;40;102682;-41
2021/06/26 07:36:49;;;;;;;16.15;10.52;;;22.10;99.90;;;21.44;58.81;101540.69;3510692;40;102300;-42
2021/06/26 07:39:18;;;;;;;14.65;10.30;;;22.10;99.90;;;21.62;53.83;101540.25;3510965;40;102201;-39
2021/06/26 07:41:45;;;;;;;13.85;9.27;;;22.30;99.90;;;21.79;56.17;101550.34;3510616;40;102589;-41
2021/06/26 07:44:13;;;;;;;13.00;9.98;;;22.30;99.90;;;21.86;56.09;101548.16;3509921;40;102461;-42
2021/06/26 07:46:40;;;;;;;14.75;9.65;;;22.50;99.90;;;21.89;54.76;101538.47;3510594;40;102282;-40
2021/06/26 07:49:09;;;;;;;15.85;10.52;;;22.50;99.90;;;21.98;54.93;101543.19;3511030;40;102478;-41
2021/06/26 07:51:36;;;;;;;14.35;9.52;;;22.60;99.90;;;22.04;53.69;101538.50;3511231;40;103042;-40
2021/06/26 07:54:04;;;;;;;12.75;10.32;;;22.70;99.90;;;21.87;53.30;101538.72;3510323;40;102274;-41
2021/06/26 07:56:32;;;;;;;;;;;22.60;99.90;;;22.02;54.05;101534.34;3511055;40;102490;-41
2021/06/26 07:58:59;;;;;;;13.35;9.70;;;22.60;99.90;;;22.11;56.09;101541.03;3510288;40;102442;-45
2021/06/26 08:01:27;;;;;;;;;;;22.80;99.90;;;22.29;52.61;101538.84;3511384;40;103173;-41
2021/06/26 08:03:56;;;;;;;14.80;9.18;;;22.90;99.90;;;22.35;54.09;101534.97;3510377;40;102353;-41
2021/06/26 08:06:23;;;;;;;9.90;7.93;;;23.00;99.90;;;22.39;51.35;101525.78;3510644;40;103257;-41
2021/06/26 08:08:51;;;;;;;10.77;7.80;;;23.10;99.90;;;22.35;50.18;101529.41;3510471;40;102119;-40
2021/06/26 08:11:20;;;;;;;10.25;7.57;;;23.20;99.90;;;22.51;50.36;101533.06;3510315;40;103308;-41
2021/06/26 08:13:49;;;;;;;9.63;6.80;;;23.20;99.90;;;22.53;49.65;101530.84;3510713;40;102519;-40
2021/06/26 08:16:17;;;;;;;10.98;7.43;;;23.20;99.90;;;22.56;52.21;101530.28;3510218;40;102742;-40
2021/06/26 08:18:44;;;;;;;;;;;23.30;99.90;;;22.84;53.22;101533.63;3510925;40;104624;-41
2021/06/26 08:21:12;;;;;;;10.85;7.80;;;23.40;99.90;;;22.95;51.49;101526.97;3510420;40;103235;-40
2021/06/26 08:23:39;;;;;;;9.48;7.40;;;23.50;99.90;;;23.05;49.25;101528.06;3511028;40;102437;-41
2021/06/26 08:26:07;;;;;;;14.27;8.63;;;23.60;99.90;;;23.08;49.63;101542.25;3510515;40;102305;-42
2021/06/26 08:28:34;;;;;;;10.30;8.10;;;23.70;99.90;;;22.86;46.63;101528.63;3510326;40;102351;-41
2021/06/26 08:31:03;;;;;;;12.00;8.52;;;23.60;98.80;;;22.91;52.09;101530.56;3510510;40;102744;-40
2021/06/26 08:33:30;;;;;;;12.55;9.02;;;23.60;99.90;;;22.84;50.33;101526.13;3510462;40;102432;-38
2021/06/26 08:35:57;;;;;;;12.65;8.80;;;23.60;99.90;;;23.07;52.81;101526.63;3509619;39;102862;-41
2021/06/26 08:38:25;;;;;;;12.85;8.98;;;23.70;99.90;;;23.03;51.19;101527.50;3510780;39;102456;-41
2021/06/26 08:40:56;;;;;;;14.20;10.05;;;23.70;99.90;;;23.06;48.13;101527.75;3510244;40;102348;-41
2021/06/26 08:43:24;;;;;;;13.38;9.77;;;23.70;99.90;;;23.11;50.81;101527.78;3510743;40;102401;-41
2021/06/26 08:45:51;;;;;;;11.95;9.25;;;23.80;99.90;;;23.02;46.66;101529.44;3510135;40;103263;-39
2021/06/26 08:48:21;;;;;;;10.23;7.82;;;23.90;98.70;;;23.02;50.17;101525.84;3510077;40;102955;-40
2021/06/26 08:50:48;;;;;;;12.38;7.95;;;23.80;99.90;;;23.06;49.37;101522.19;3510333;40;102297;-42
2021/06/26 08:53:15;;;;;;;;;;;23.80;99.90;;;23.10;50.21;101528.88;3511044;40;102846;-39
2021/06/26 08:55:43;;;;;;;12.35;9.07;;;23.90;99.90;;;23.01;49.05;101524.97;3510204;40;103073;-41
2021/06/26 08:58:12;;;;;;;;;;;23.90;99.90;;;23.11;52.40;101526.94;3510344;40;103384;-42
2021/06/26 09:00:39;;;;;;;11.13;8.25;;;23.90;99.90;;;23.41;49.13;101528.00;3510247;40;102292;-41
2021/06/26 09:03:16;;;;;;;11.48;8.50;;;24.10;99.90;;;23.45;45.17;101519.94;3510430;39;102485;-41
2021/06/26 09:05:46;;;;;;;13.55;8.93;;;24.10;97.30;;;23.53;49.19;101524.91;3510100;40;102250;-41
2021/06/26 09:08:19;;;;;;;12.40;9.18;;;24.10;99.90;;;23.62;50.06;101523.22;3510070;40;102564;-41
2021/06/26 09:10:51;;;;;;;14.48;9.70;;;24.20;99.90;;;23.72;47.23;101524.28;3510036;40;103431;-41
2021/06/26 09:13:23;;;;;;;12.88;9.90;;;24.30;99.20;;;23.69;46.97;101522.88;3510077;40;102410;-40
2021/06/26 09:16:15;;;;;;;13.07;8.43;;;24.40;98.70;;;23.85;48.42;101516.13;3510074;40;103087;-41
2021/06/26 09:18:49;;;;;;;14.68;9.38;;;24.50;99.90;;;23.90;50.58;101529.22;3509843;40;102674;-41
2021/06/26 09:21:36;;;;;;;11.77;8.93;;;24.60;99.90;;;24.15;49.47;101521.88;3509968;40;104240;-41
2021/06/26 09:24:08;;;;;;;12.30;9.23;;;24.70;99.90;;;24.22;48.42;101522.38;3510263;40;102503;-41
2021/06/26 09:26:58;;;;;;;14.50;10.10;;;24.80;99.70;;;24.19;50.61;101517.38;3509712;40;102408;-41
2021/06/26 09:29:27;;;;;;;13.48;9.85;;;24.80;99.90;;;24.28;50.73;101532.38;3509678;40;102520;-45
2021/06/26 09:32:00;;;;;;;13.75;9.65;;;24.90;99.90;;;24.52;49.55;101528.84;3510157;39;102172;-41
2021/06/26 09:34:43;;;;;;;15.98;11.27;;;25.10;99.90;;;24.51;47.38;101537.50;3509397;40;102292;-40
2021/06/26 09:37:21;;;;;;;13.50;9.82;;;25.20;99.60;;;24.46;46.47;101523.59;3510024;40;102370;-41
2021/06/26 09:39:54;;;;;;;15.25;10.48;;;25.10;97.90;;;24.54;48.13;101529.41;3517523;40;102265;-39
2021/06/26 09:42:30;;;;;;;16.08;11.00;;;25.20;99.30;;;24.42;44.30;101528.94;3510345;40;103112;-41
2021/06/26 09:45:01;;;;;;;11.88;9.43;;;25.20;96.20;;;24.52;47.08;101537.22;3509665;40;102546;-40
2021/06/26 09:47:40;;;;;;;12.15;8.90;;;25.20;97.70;;;24.39;48.24;101532.28;3510309;40;102402;-40
2021/06/26 09:50:18;;;;;;;12.65;8.93;;;25.10;99.20;;;24.49;50.56;101543.38;3511498;40;102381;-41
2021/06/26 09:52:57;;;;;;;12.13;8.55;;;25.10;99.90;;;24.65;48.18;101538.53;3511823;40;102749;-38
2021/06/26 09:55:30;;;;;;;12.82;8.65;;;25.30;99.20;;;24.82;47.15;101532.53;3510946;40;102276;-40
2021/06/26 09:58:07;;;;;;;8.98;6.63;;;25.40;98.30;;;24.84;44.69;101541.44;3511552;40;103237;-41
2021/06/26 10:00:36;;;;;;;10.85;7.43;;;25.50;96.60;;;25.01;45.30;101537.41;3511059;40;102599;-41
2021/06/26 10:03:04;;;;;;;9.85;7.45;;;25.50;96.70;;;24.96;44.94;101537.47;3511726;39;103202;-41
2021/06/26 10:05:32;;;;;;;10.80;7.97;;;25.60;95.60;;;25.02;43.92;101535.44;3510897;40;102146;-41
2021/06/26 10:08:06;;;;;;;11.07;7.93;;;25.70;94.90;;;25.19;42.49;101527.47;3511032;40;104093;-38